createdAt,value
2018-04-02T00:00:55.860Z,100801.13
2018-04-02T00:03:24.811Z,100802.77
2018-04-02T00:05:53.687Z,100803.98
2018-04-02T00:08:22.481Z,100798.63
2018-04-02T00:10:50.913Z,100796.52
2018-04-02T00:13:19.587Z,100799.84
2018-04-02T00:15:49.257Z,100800.22
2018-04-02T00:18:17.892Z,100803.25
2018-04-02T00:20:46.361Z,100800.83
2018-04-02T00:23:15.023Z,100808.86
2018-04-02T00:25:43.769Z,100812.96
2018-04-02T00:28:12.311Z,100803.96
2018-04-02T00:30:40.998Z,100814.10
2018-04-02T00:33:09.434Z,100815.49
2018-04-02T00:35:37.831Z,100810.36
2018-04-02T00:38:06.713Z,100807.33
2018-04-02T00:40:35.091Z,100809.98
2018-04-02T00:43:03.559Z,100807.78
2018-04-02T00:45:32.767Z,100806.22
2018-04-02T00:48:01.127Z,100805.73
2018-04-02T00:50:29.466Z,100814.89
2018-04-02T00:52:58.722Z,100820.55
2018-04-02T00:55:27.066Z,100818.30
2018-04-02T00:57:56.592Z,100817.84
2018-04-02T01:00:25.539Z,100814.27
2018-04-02T01:02:54.113Z,100818.98
2018-04-02T01:05:22.651Z,100817.59
2018-04-02T01:07:52.006Z,100814.03
2018-04-02T01:10:20.607Z,100814.18
2018-04-02T01:12:50.040Z,100814.66
2018-04-02T01:15:18.673Z,100820.92
2018-04-02T01:17:47.255Z,100824.61
2018-04-02T01:20:16.102Z,100823.34
2018-04-02T01:22:44.941Z,100820.73
2018-04-02T01:25:13.678Z,100816.39
2018-04-02T01:27:42.190Z,100809.87
2018-04-02T01:30:10.587Z,100814.64
2018-04-02T01:32:39.014Z,100816.87
2018-04-02T01:35:07.455Z,100815.08
2018-04-02T01:37:37.009Z,100818.23
2018-04-02T01:40:05.360Z,100818.72
2018-04-02T01:42:33.779Z,100818.33
2018-04-02T01:45:02.180Z,100816.56
2018-04-02T01:47:30.516Z,100819.28
2018-04-02T01:49:58.890Z,100824.69
2018-04-02T01:52:27.352Z,100821.20
2018-04-02T01:54:55.830Z,100816.08
2018-04-02T01:57:24.356Z,100821.41
2018-04-02T01:59:52.771Z,100815.45
2018-04-02T02:02:21.125Z,100812.74
2018-04-02T02:04:49.560Z,100810.19
2018-04-02T02:07:18.168Z,100818.09
2018-04-02T02:09:46.586Z,100810.59
2018-04-02T02:12:15.102Z,100818.38
2018-04-02T02:14:43.481Z,100820.67
2018-04-02T02:17:11.957Z,100822.68
2018-04-02T02:19:40.381Z,100821.75
2018-04-02T02:22:08.765Z,100824.80
2018-04-02T02:24:37.153Z,100820.53
2018-04-02T02:27:05.511Z,100816.34
2018-04-02T02:29:33.908Z,100818.07
2018-04-02T02:32:02.515Z,100811.00
2018-04-02T02:34:30.932Z,100810.55
2018-04-02T02:36:59.820Z,100815.45
2018-04-02T02:39:28.221Z,100807.94
2018-04-02T02:41:56.620Z,100813.66
2018-04-02T02:44:25.972Z,100808.90
2018-04-02T02:46:54.524Z,100809.77
2018-04-02T02:49:23.003Z,100804.11
2018-04-02T02:51:51.538Z,100807.14
2018-04-02T02:54:19.947Z,100817.20
2018-04-02T02:56:48.354Z,100808.51
2018-04-02T02:59:16.929Z,100808.94
2018-04-02T03:01:45.673Z,100815.63
2018-04-02T03:04:14.093Z,100810.80
2018-04-02T03:06:42.688Z,100806.41
2018-04-02T03:09:11.160Z,100804.23
2018-04-02T03:11:39.566Z,100804.21
2018-04-02T03:14:08.710Z,100799.44
2018-04-02T03:16:37.090Z,100801.00
2018-04-02T03:19:05.430Z,100800.66
2018-04-02T03:21:34.074Z,100796.37
2018-04-02T03:24:02.467Z,100809.47
2018-04-02T03:26:30.843Z,100806.89
2018-04-02T03:28:59.323Z,100804.62
2018-04-02T03:31:27.722Z,100819.23
2018-04-02T03:33:56.134Z,100805.88
2018-04-02T03:36:24.531Z,100807.60
2018-04-02T03:38:52.962Z,100814.99
2018-04-02T03:41:21.361Z,100812.80
2018-04-02T03:43:49.993Z,100806.58
2018-04-02T03:46:24.193Z,100810.98
2018-04-02T03:48:52.758Z,100805.63
2018-04-02T03:51:21.097Z,100798.34
2018-04-02T03:53:49.501Z,100800.36
2018-04-02T03:56:18.126Z,100797.36
2018-04-02T03:58:46.842Z,100804.23
2018-04-02T04:01:15.452Z,100799.96
2018-04-02T04:03:44.705Z,100805.63
2018-04-02T04:06:13.114Z,100802.97
2018-04-02T04:08:41.613Z,100800.84
2018-04-02T04:11:10.109Z,100792.38
2018-04-02T04:13:40.383Z,100796.23
2018-04-02T04:16:08.745Z,100799.09
2018-04-02T04:18:37.144Z,100795.87
2018-04-02T04:21:05.517Z,100796.65
2018-04-02T04:23:33.862Z,100797.84
2018-04-02T04:26:02.585Z,100802.57
2018-04-02T04:28:30.941Z,100801.12
2018-04-02T04:30:59.337Z,100798.50
2018-04-02T04:33:27.749Z,100799.36
2018-04-02T04:35:56.107Z,100791.90
2018-04-02T04:38:24.466Z,100801.06
2018-04-02T04:40:53.372Z,100803.16
2018-04-02T04:43:21.724Z,100797.36
2018-04-02T04:45:50.071Z,100799.11
2018-04-02T04:48:19.323Z,100804.39
2018-04-02T04:50:47.704Z,100810.97
2018-04-02T04:53:16.386Z,100808.26
2018-04-02T04:55:44.808Z,100806.45
2018-04-02T04:58:13.254Z,100808.09
2018-04-02T05:00:41.662Z,100806.19
2018-04-02T05:03:10.409Z,100803.09
2018-04-02T05:05:38.797Z,100801.25
2018-04-02T05:08:07.196Z,100801.30
2018-04-02T05:10:36.178Z,100805.55
2018-04-02T05:13:04.547Z,100810.43
2018-04-02T05:15:32.993Z,100801.66
2018-04-02T05:18:01.368Z,100809.95
2018-04-02T05:20:29.739Z,100813.44
2018-04-02T05:22:58.082Z,100817.73
2018-04-02T05:25:28.044Z,100819.00
2018-04-02T05:27:56.482Z,100818.95
2018-04-02T05:30:25.037Z,100810.07
2018-04-02T05:32:54.295Z,100817.98
2018-04-02T05:35:22.842Z,100818.26
2018-04-02T05:37:51.308Z,100821.38
2018-04-02T05:40:21.608Z,100817.75
2018-04-02T05:42:50.558Z,100823.36
2018-04-02T05:45:19.110Z,100824.55
2018-04-02T05:47:47.936Z,100824.47
2018-04-02T05:50:16.413Z,100820.92
2018-04-02T05:52:44.859Z,100821.81
2018-04-02T05:55:13.526Z,100824.17
2018-04-02T05:57:42.048Z,100827.53
2018-04-02T06:00:10.437Z,100828.72
2018-04-02T06:02:38.841Z,100827.74
2018-04-02T06:05:07.214Z,100829.87
2018-04-02T06:07:35.559Z,100818.62
2018-04-02T06:10:04.553Z,100820.64
2018-04-02T06:12:36.380Z,100819.96
2018-04-02T06:15:04.781Z,100821.51
2018-04-02T06:17:33.226Z,100820.94
2018-04-02T06:20:02.638Z,100815.81
2018-04-02T06:22:30.978Z,100816.44
2018-04-02T06:24:59.501Z,100820.08
2018-04-02T06:27:27.915Z,100820.76
2018-04-02T06:29:56.537Z,100820.80
2018-04-02T06:32:25.258Z,100814.98
2018-04-02T06:34:53.871Z,100817.31
2018-04-02T06:37:23.372Z,100819.34
2018-04-02T06:39:52.368Z,100812.57
2018-04-02T06:42:20.987Z,100804.72
2018-04-02T06:44:49.711Z,100806.55
2018-04-02T06:47:18.553Z,100810.29
2018-04-02T06:49:47.823Z,100810.98
2018-04-02T06:52:16.334Z,100806.17
2018-04-02T06:54:44.814Z,100803.59
2018-04-02T06:57:13.244Z,100799.63
2018-04-02T06:59:41.819Z,100800.46
2018-04-02T07:02:12.231Z,100808.64
2018-04-02T07:04:40.610Z,100801.32
2018-04-02T07:07:09.057Z,100794.30
2018-04-02T07:09:37.739Z,100806.83
2018-04-02T07:12:06.370Z,100794.03
2018-04-02T07:14:34.714Z,100798.91
2018-04-02T07:17:03.385Z,100790.82
2018-04-02T07:19:33.509Z,100796.56
2018-04-02T07:22:01.985Z,100796.23
2018-04-02T07:24:30.541Z,100800.34
2018-04-02T07:26:58.918Z,100799.18
2018-04-02T07:29:27.336Z,100799.20
2018-04-02T07:31:55.883Z,100799.24
2018-04-02T07:34:24.313Z,100796.25
2018-04-02T07:36:52.879Z,100797.22
2018-04-02T07:39:21.717Z,100793.50
2018-04-02T07:41:50.166Z,100796.43
2018-04-02T07:44:18.627Z,100800.18
2018-04-02T07:46:47.158Z,100802.07
2018-04-02T07:49:17.477Z,100809.33
2018-04-02T07:51:45.969Z,100805.39
2018-04-02T07:54:14.981Z,100804.83
2018-04-02T07:56:44.616Z,100802.75
2018-04-02T07:59:14.028Z,100809.25
2018-04-02T08:01:42.646Z,100807.39
2018-04-02T08:04:11.018Z,100804.84
2018-04-02T08:06:39.411Z,100805.41
2018-04-02T08:09:08.632Z,100811.46
2018-04-02T08:11:37.037Z,100812.80
2018-04-02T08:14:05.405Z,100809.89
2018-04-02T08:16:34.275Z,100812.70
2018-04-02T08:19:02.727Z,100818.12
2018-04-02T08:21:31.270Z,100808.42
2018-04-02T08:24:00.478Z,100806.17
2018-04-02T08:26:28.950Z,100817.03
2018-04-02T08:28:57.988Z,100813.77
2018-04-02T08:31:27.177Z,100814.58
2018-04-02T08:33:55.898Z,100832.06
2018-04-02T08:36:29.288Z,100821.91
2018-04-02T08:38:58.031Z,100820.00
2018-04-02T08:41:27.228Z,100816.37
2018-04-02T08:43:56.128Z,100816.80
2018-04-02T08:46:24.636Z,100820.03
2018-04-02T08:48:53.469Z,100818.36
2018-04-02T08:51:21.880Z,100821.19
2018-04-02T08:53:50.639Z,100822.17
2018-04-02T08:56:19.280Z,100816.23
2018-04-02T08:58:48.119Z,100809.25
2018-04-02T09:01:16.840Z,100816.37
2018-04-02T09:03:46.814Z,100809.83
2018-04-02T09:06:15.348Z,100816.37
2018-04-02T09:08:44.197Z,100806.20
2018-04-02T09:11:13.048Z,100805.15
2018-04-02T09:13:42.800Z,100807.20
2018-04-02T09:16:11.897Z,100808.69
2018-04-02T09:18:40.626Z,100808.08
2018-04-02T09:21:10.125Z,100801.88
2018-04-02T09:23:38.556Z,100799.84
2018-04-02T09:26:06.930Z,100800.53
2018-04-02T09:28:35.325Z,100802.09
2018-04-02T09:31:03.689Z,100806.47
2018-04-02T09:33:32.111Z,100799.97
2018-04-02T09:36:00.537Z,100792.86
2018-04-02T09:38:28.915Z,100789.97
2018-04-02T09:40:57.403Z,100791.27
2018-04-02T09:43:26.297Z,100784.77
2018-04-02T09:45:54.801Z,100779.86
2018-04-02T09:48:23.343Z,100783.72
2018-04-02T09:50:52.068Z,100780.42
2018-04-02T09:53:20.577Z,100777.70
2018-04-02T09:55:48.995Z,100778.28
2018-04-02T09:58:17.745Z,100779.05
2018-04-02T10:00:46.282Z,100764.81
2018-04-02T10:03:14.860Z,100768.81
2018-04-02T10:05:44.625Z,100771.34
2018-04-02T10:08:13.314Z,100762.59
2018-04-02T10:10:41.948Z,100761.44
2018-04-02T10:13:11.450Z,100760.61
2018-04-02T10:15:39.883Z,100766.70
2018-04-02T10:18:08.568Z,100749.37
2018-04-02T10:20:38.379Z,100759.84
2018-04-02T10:23:07.396Z,100749.09
2018-04-02T10:25:35.978Z,100755.45
2018-04-02T10:28:05.683Z,100744.83
2018-04-02T10:30:34.404Z,100742.69
2018-04-02T10:33:03.302Z,100737.59
2018-04-02T10:35:31.938Z,100741.66
2018-04-02T10:38:00.657Z,100743.26
2018-04-02T10:40:30.048Z,100744.15
2018-04-02T10:42:59.436Z,100742.61
2018-04-02T10:45:28.008Z,100734.94
2018-04-02T10:47:56.835Z,100736.47
2018-04-02T10:50:26.155Z,100749.23
2018-04-02T10:52:55.450Z,100741.98
2018-04-02T10:55:24.313Z,100738.39
2018-04-02T10:57:53.415Z,100733.80
2018-04-02T11:00:22.313Z,100728.69
2018-04-02T11:02:51.536Z,100732.37
2018-04-02T11:05:20.596Z,100728.19
2018-04-02T11:07:50.306Z,100725.09
2018-04-02T11:10:19.604Z,100726.38
2018-04-02T11:12:49.010Z,100731.48
2018-04-02T11:15:19.621Z,100731.04
2018-04-02T11:17:48.931Z,100720.62
2018-04-02T11:20:18.633Z,100717.06
2018-04-02T11:22:47.340Z,100717.48
2018-04-02T11:25:17.234Z,100716.80
2018-04-02T11:27:47.618Z,100707.68
2018-04-02T11:30:15.965Z,100715.69
2018-04-02T11:32:44.340Z,100709.80
2018-04-02T11:35:12.990Z,100712.38
2018-04-02T11:37:41.494Z,100703.70
2018-04-02T11:40:10.110Z,100711.71
2018-04-02T11:42:38.658Z,100708.72
2018-04-02T11:45:07.162Z,100702.06
2018-04-02T11:47:35.896Z,100704.32
2018-04-02T11:50:05.956Z,100694.52
2018-04-02T11:52:35.644Z,100698.45
2018-04-02T11:55:04.863Z,100695.63
2018-04-02T11:57:33.968Z,100694.87
2018-04-02T12:00:02.694Z,100694.09
2018-04-02T12:02:31.554Z,100687.68
2018-04-02T12:05:00.063Z,100685.48
2018-04-02T12:07:29.519Z,100687.22
2018-04-02T12:09:58.299Z,100681.72
2018-04-02T12:12:27.925Z,100684.81
2018-04-02T12:14:56.701Z,100677.67
2018-04-02T12:17:25.229Z,100689.77
2018-04-02T12:19:53.867Z,100685.66
2018-04-02T12:22:22.329Z,100681.83
2018-04-02T12:24:51.057Z,100684.03
2018-04-02T12:27:20.496Z,100675.45
2018-04-02T12:29:49.009Z,100674.70
2018-04-02T12:32:17.472Z,100678.25
2018-04-02T12:34:46.687Z,100668.25
2018-04-02T12:37:15.042Z,100672.39
2018-04-02T12:39:43.388Z,100664.80
2018-04-02T12:42:11.822Z,100664.66
2018-04-02T12:44:40.212Z,100673.02
2018-04-02T12:47:08.610Z,100676.89
2018-04-02T12:49:37.005Z,100676.34
2018-04-02T12:52:05.414Z,100664.27
2018-04-02T12:54:33.793Z,100662.16
2018-04-02T12:57:02.221Z,100657.02
2018-04-02T12:59:31.880Z,100654.78
2018-04-02T13:02:00.284Z,100652.13
2018-04-02T13:04:28.712Z,100642.98
2018-04-02T13:06:57.153Z,100645.08
2018-04-02T13:09:25.630Z,100651.74
2018-04-02T13:11:54.361Z,100643.29
2018-04-02T13:14:22.925Z,100643.94
2018-04-02T13:16:51.832Z,100642.64
2018-04-02T13:19:21.095Z,100636.55
2018-04-02T13:21:49.984Z,100638.00
2018-04-02T13:24:18.483Z,100638.08
2018-04-02T13:26:46.910Z,100639.34
2018-04-02T13:29:15.378Z,100632.05
2018-04-02T13:31:43.802Z,100629.34
2018-04-02T13:34:12.566Z,100628.64
2018-04-02T13:36:40.980Z,100631.39
2018-04-02T13:39:09.393Z,100630.83
2018-04-02T13:41:37.849Z,100630.79
2018-04-02T13:44:06.311Z,100621.88
2018-04-02T13:46:35.622Z,100622.88
2018-04-02T13:49:04.769Z,100620.98
2018-04-02T13:51:33.124Z,100609.55
2018-04-02T13:54:01.525Z,100612.95
2018-04-02T13:56:30.126Z,100611.41
2018-04-02T13:58:58.488Z,100606.11
2018-04-02T14:01:27.406Z,100608.14
2018-04-02T14:03:56.314Z,100607.36
2018-04-02T14:06:24.763Z,100607.75
2018-04-02T14:08:56.413Z,100599.31
2018-04-02T14:11:24.929Z,100600.02
2018-04-02T14:13:53.383Z,100596.27
2018-04-02T14:16:22.376Z,100585.77
2018-04-02T14:18:50.845Z,100584.41
2018-04-02T14:21:19.496Z,100585.89
2018-04-02T14:23:48.987Z,100580.13
2018-04-02T14:26:18.718Z,100582.42
2018-04-02T14:28:47.492Z,100579.23
2018-04-02T14:31:15.905Z,100577.90
2018-04-02T14:33:44.382Z,100573.56
2018-04-02T14:36:12.785Z,100575.64
2018-04-02T14:38:41.200Z,100578.61
2018-04-02T14:41:10.707Z,100580.36
2018-04-02T14:43:39.063Z,100571.19
2018-04-02T14:46:08.074Z,100569.31
2018-04-02T14:48:36.466Z,100573.47
2018-04-02T14:51:04.898Z,100566.39
2018-04-02T14:53:33.295Z,100572.12
2018-04-02T14:56:02.615Z,100564.08
2018-04-02T14:58:31.911Z,100561.97
2018-04-02T15:01:00.509Z,100563.33
2018-04-02T15:03:28.925Z,100557.28
2018-04-02T15:05:57.431Z,100555.75
2018-04-02T15:08:26.116Z,100552.23
2018-04-02T15:10:55.559Z,100548.52
2018-04-02T15:13:24.204Z,100543.34
2018-04-02T15:15:53.685Z,100540.16
2018-04-02T15:18:22.396Z,100538.83
2018-04-02T15:20:52.301Z,100530.33
2018-04-02T15:23:20.766Z,100532.28
2018-04-02T15:25:49.201Z,100522.59
2018-04-02T15:28:18.634Z,100520.26
2018-04-02T15:30:47.086Z,100519.04
2018-04-02T15:33:15.568Z,100517.91
2018-04-02T15:35:43.948Z,100516.57
2018-04-02T15:38:12.323Z,100502.42
2018-04-02T15:40:40.708Z,100505.89
2018-04-02T15:43:09.136Z,100493.95
2018-04-02T15:45:37.526Z,100496.78
2018-04-02T15:48:08.115Z,100490.55
2018-04-02T15:50:36.590Z,100483.27
2018-04-02T15:53:05.077Z,100488.89
2018-04-02T15:55:34.322Z,100476.79
2018-04-02T15:58:03.159Z,100478.30
2018-04-02T16:00:31.671Z,100472.34
2018-04-02T16:03:00.252Z,100472.42
2018-04-02T16:05:28.706Z,100467.28
2018-04-02T16:07:57.383Z,100468.83
2018-04-02T16:10:25.994Z,100465.80
2018-04-02T16:12:54.456Z,100461.52
2018-04-02T16:15:23.468Z,100458.35
2018-04-02T16:17:52.040Z,100460.77
2018-04-02T16:20:20.430Z,100464.55
2018-04-02T16:22:49.034Z,100458.69
2018-04-02T16:25:17.701Z,100463.05
2018-04-02T16:27:46.092Z,100460.93
2018-04-02T16:30:14.439Z,100455.86
2018-04-02T16:32:42.899Z,100455.58
2018-04-02T16:35:11.317Z,100454.33
2018-04-02T16:37:41.662Z,100442.81
2018-04-02T16:40:10.928Z,100450.24
2018-04-02T16:42:39.345Z,100436.45
2018-04-02T16:45:07.690Z,100437.05
2018-04-02T16:47:36.070Z,100427.70
2018-04-02T16:50:04.441Z,100427.61
2018-04-02T16:52:33.744Z,100429.64
2018-04-02T16:55:02.164Z,100426.23
2018-04-02T16:57:30.503Z,100435.69
2018-04-02T16:59:58.969Z,100428.61
2018-04-02T17:02:27.623Z,100422.72
2018-04-02T17:04:55.998Z,100421.34
2018-04-02T17:07:24.997Z,100414.05
2018-04-02T17:09:53.829Z,100414.56
2018-04-02T17:12:23.678Z,100421.62
2018-04-02T17:14:52.199Z,100423.70
2018-04-02T17:17:20.700Z,100414.16
2018-04-02T17:19:49.168Z,100410.91
2018-04-02T17:22:17.621Z,100413.80
2018-04-02T17:24:46.065Z,100405.42
2018-04-02T17:27:14.569Z,100407.97
2018-04-02T17:29:42.877Z,100397.10
2018-04-02T17:32:11.546Z,100406.22
2018-04-02T17:34:39.905Z,100403.53
2018-04-02T17:37:08.284Z,100398.96
2018-04-02T17:39:36.644Z,100395.34
2018-04-02T17:42:05.166Z,100391.23
2018-04-02T17:44:33.544Z,100400.47
2018-04-02T17:47:01.934Z,100395.58
2018-04-02T17:49:30.276Z,100400.97
2018-04-02T17:51:58.700Z,100390.05
2018-04-02T17:54:27.321Z,100401.05
2018-04-02T17:56:55.805Z,100400.88
2018-04-02T17:59:24.487Z,100390.00
2018-04-02T18:01:54.178Z,100394.91
2018-04-02T18:04:22.938Z,100386.41
2018-04-02T18:06:51.402Z,100380.00
2018-04-02T18:09:19.891Z,100383.13
2018-04-02T18:11:48.597Z,100388.59
2018-04-02T18:14:17.939Z,100381.45
2018-04-02T18:16:46.857Z,100378.86
2018-04-02T18:19:15.233Z,100388.49
2018-04-02T18:21:43.845Z,100379.20
2018-04-02T18:24:12.650Z,100378.40
2018-04-02T18:26:41.085Z,100368.52
2018-04-02T18:29:09.520Z,100362.48
2018-04-02T18:31:39.074Z,100363.91
2018-04-02T18:34:07.574Z,100359.00
2018-04-02T18:36:35.952Z,100363.31
2018-04-02T18:39:04.521Z,100349.45
2018-04-02T18:41:33.001Z,100339.20
2018-04-02T18:44:01.533Z,100346.02
2018-04-02T18:46:30.004Z,100337.72
2018-04-02T18:48:58.539Z,100333.20
2018-04-02T18:51:27.125Z,100331.48
2018-04-02T18:53:56.602Z,100329.91
2018-04-02T18:56:27.036Z,100328.25
2018-04-02T18:58:55.548Z,100333.12
2018-04-02T19:01:24.094Z,100326.33
2018-04-02T19:03:53.817Z,100318.12
2018-04-02T19:06:22.288Z,100322.32
2018-04-02T19:08:50.877Z,100325.48
2018-04-02T19:11:19.461Z,100320.91
2018-04-02T19:13:48.062Z,100323.55
2018-04-02T19:16:17.035Z,100309.10
2018-04-02T19:18:45.429Z,100307.43
2018-04-02T19:21:13.902Z,100312.82
2018-04-02T19:23:42.723Z,100308.75
2018-04-02T19:26:11.097Z,100305.41
2018-04-02T19:28:39.459Z,100305.30
2018-04-02T19:31:07.878Z,100303.17
2018-04-02T19:33:36.256Z,100299.90
2018-04-02T19:36:04.648Z,100303.78
2018-04-02T19:38:33.090Z,100295.97
2018-04-02T19:41:01.551Z,100287.67
2018-04-02T19:43:30.111Z,100284.11
2018-04-02T19:45:59.137Z,100283.09
2018-04-02T19:48:27.700Z,100264.60
2018-04-02T19:50:56.182Z,100268.22
2018-04-02T19:53:25.175Z,100258.48
2018-04-02T19:55:53.720Z,100259.95
2018-04-02T19:58:22.352Z,100257.30
2018-04-02T20:00:51.141Z,100249.63
2018-04-02T20:03:19.721Z,100249.72
2018-04-02T20:05:48.441Z,100247.83
2018-04-02T20:08:17.233Z,100252.52
2018-04-02T20:10:45.589Z,100243.66
2018-04-02T20:13:14.506Z,100243.52
2018-04-02T20:15:43.812Z,100238.17
2018-04-02T20:18:12.199Z,100241.35
2018-04-02T20:20:40.608Z,100240.06
2018-04-02T20:23:09.398Z,100228.26
2018-04-02T20:25:37.697Z,100222.82
2018-04-02T20:28:06.079Z,100226.16
2018-04-02T20:30:35.531Z,100221.74
2018-04-02T20:33:03.957Z,100213.95
2018-04-02T20:35:32.318Z,100211.01
2018-04-02T20:38:01.116Z,100208.88
2018-04-02T20:40:29.525Z,100199.19
2018-04-02T20:42:58.137Z,100191.81
2018-04-02T20:45:26.775Z,100178.66
2018-04-02T20:47:55.281Z,100176.88
2018-04-02T20:50:23.717Z,100165.63
2018-04-02T20:52:53.089Z,100170.41
2018-04-02T20:55:21.544Z,100158.39
2018-04-02T20:57:50.042Z,100162.45
2018-04-02T21:00:19.176Z,100160.27
2018-04-02T21:02:48.152Z,100159.86
2018-04-02T21:05:16.666Z,100155.87
2018-04-02T21:07:45.159Z,100156.29
2018-04-02T21:10:13.538Z,100144.97
2018-04-02T21:12:41.917Z,100149.16
2018-04-02T21:15:12.579Z,100146.84
2018-04-02T21:17:40.958Z,100149.28
2018-04-02T21:20:09.765Z,100147.78
2018-04-02T21:22:38.544Z,100144.55
2018-04-02T21:25:06.976Z,100141.23
2018-04-02T21:27:35.374Z,100146.73
2018-04-02T21:30:03.727Z,100141.94
2018-04-02T21:32:32.112Z,100142.67
2018-04-02T21:35:00.511Z,100132.96
2018-04-02T21:37:30.217Z,100124.47
2018-04-02T21:39:58.798Z,100121.27
2018-04-02T21:42:27.627Z,100125.81
2018-04-02T21:44:56.579Z,100122.44
2018-04-02T21:47:25.111Z,100117.48
2018-04-02T21:49:53.609Z,100113.79
2018-04-02T21:52:22.846Z,100108.06
2018-04-02T21:54:51.429Z,100103.65
2018-04-02T21:57:20.652Z,100110.89
2018-04-02T21:59:49.531Z,100101.30
2018-04-02T22:02:18.091Z,100096.06
2018-04-02T22:04:46.655Z,100088.80
2018-04-02T22:07:15.040Z,100077.73
2018-04-02T22:09:43.536Z,100083.66
2018-04-02T22:12:11.898Z,100083.88
2018-04-02T22:14:40.733Z,100080.13
2018-04-02T22:17:09.144Z,100075.64
2018-04-02T22:19:37.550Z,100070.13
2018-04-02T22:22:05.970Z,100066.63
2018-04-02T22:24:34.335Z,100055.64
2018-04-02T22:27:02.729Z,100054.58
2018-04-02T22:29:31.319Z,100049.30
2018-04-02T22:31:59.659Z,100055.81
2018-04-02T22:34:28.255Z,100043.94
2018-04-02T22:36:57.766Z,100044.98
2018-04-02T22:39:26.331Z,100030.83
2018-04-02T22:41:54.898Z,100028.87
2018-04-02T22:44:23.335Z,100026.09
2018-04-02T22:46:51.739Z,100019.08
2018-04-02T22:49:20.317Z,100020.97
2018-04-02T22:51:48.736Z,100019.44
2018-04-02T22:54:17.101Z,100021.94
2018-04-02T22:56:45.644Z,100017.97
2018-04-02T22:59:14.871Z,100022.27
2018-04-02T23:01:43.272Z,100023.64
2018-04-02T23:04:12.977Z,100021.11
2018-04-02T23:06:41.637Z,100017.61
2018-04-02T23:09:09.991Z,100011.43
2018-04-02T23:11:42.279Z,100008.48
2018-04-02T23:14:11.619Z,100004.17
2018-04-02T23:16:39.967Z,100002.66
2018-04-02T23:19:09.492Z,99991.52
2018-04-02T23:21:37.849Z,99993.45
2018-04-02T23:24:06.662Z,99985.32
2018-04-02T23:26:35.951Z,99982.91
2018-04-02T23:29:04.427Z,99986.03
2018-04-02T23:31:33.674Z,99972.59
2018-04-02T23:34:02.585Z,99964.18
2018-04-02T23:36:30.945Z,99950.48
2018-04-02T23:38:59.753Z,99967.59
2018-04-02T23:41:28.220Z,99960.12
2018-04-02T23:43:56.784Z,99951.08
2018-04-02T23:46:25.397Z,99945.66
2018-04-02T23:48:54.195Z,99942.86
2018-04-02T23:51:23.908Z,99937.67
2018-04-02T23:53:52.274Z,99922.64
2018-04-02T23:56:20.906Z,99919.38
2018-04-02T23:58:49.727Z,99921.27
